createdAt,value
2019-05-13T00:01:35.633Z,10.10
2019-05-13T00:04:05.239Z,10.20
2019-05-13T00:09:06.328Z,9.10
2019-05-13T00:11:35.902Z,10.00
2019-05-13T00:14:05.414Z,10.10
2019-05-13T00:16:34.778Z,10.00
2019-05-13T00:19:04.415Z,10.10
2019-05-13T00:21:34.139Z,9.90
2019-05-13T00:24:04.130Z,10.00
2019-05-13T00:29:04.226Z,10.00
2019-05-13T00:31:33.981Z,10.00
2019-05-13T00:34:03.796Z,10.10
2019-05-13T00:36:33.915Z,10.00
2019-05-13T00:39:05.579Z,10.10
2019-05-13T00:41:35.076Z,10.00
2019-05-13T00:44:05.153Z,9.90
2019-05-13T00:46:34.712Z,9.90
2019-05-13T00:49:05.941Z,10.00
2019-05-13T00:51:35.547Z,9.90
2019-05-13T00:56:34.632Z,9.90
2019-05-13T00:59:04.271Z,9.90
2019-05-13T01:01:33.987Z,9.90
2019-05-13T01:04:04.080Z,9.90
2019-05-13T01:06:34.426Z,9.90
2019-05-13T01:09:06.684Z,9.80
2019-05-13T01:14:05.488Z,8.80
2019-05-13T01:19:04.601Z,9.80
2019-05-13T01:21:34.590Z,9.90
2019-05-13T01:24:05.187Z,10.00
2019-05-13T01:26:34.759Z,9.90
2019-05-13T01:29:06.401Z,9.80
2019-05-13T01:31:35.909Z,9.80
2019-05-13T01:34:05.443Z,9.70
2019-05-13T01:36:34.975Z,9.70
2019-05-13T01:41:35.560Z,9.80
2019-05-13T01:44:05.065Z,9.80
2019-05-13T01:46:34.823Z,9.90
2019-05-13T01:49:07.351Z,9.90
2019-05-13T01:51:36.853Z,9.80
2019-05-13T01:56:35.554Z,9.80
2019-05-13T02:01:34.255Z,9.80
2019-05-13T02:04:04.230Z,9.80
2019-05-13T02:06:34.104Z,9.80
2019-05-13T02:09:05.428Z,9.60
2019-05-13T02:14:05.717Z,9.50
2019-05-13T02:16:35.387Z,9.70
2019-05-13T02:19:04.785Z,9.60
2019-05-13T02:21:34.185Z,9.70
2019-05-13T02:26:34.545Z,9.80
2019-05-13T02:31:46.155Z,9.60
2019-05-13T02:34:05.294Z,9.60
2019-05-13T02:36:34.888Z,9.60
2019-05-13T02:39:06.749Z,9.60
2019-05-13T02:41:36.390Z,9.60
2019-05-13T02:44:06.795Z,9.60
2019-05-13T02:46:37.200Z,9.70
2019-05-13T02:49:08.456Z,9.40
2019-05-13T02:51:37.954Z,9.40
2019-05-13T02:54:07.565Z,9.40
2019-05-13T02:56:37.039Z,9.40
2019-05-13T02:59:06.516Z,9.60
2019-05-13T03:01:36.237Z,9.50
2019-05-13T03:04:05.682Z,9.50
2019-05-13T03:09:07.637Z,9.50
2019-05-13T03:11:37.058Z,9.50
2019-05-13T03:16:54.330Z,9.50
2019-05-13T03:19:23.806Z,9.40
2019-05-13T03:21:53.194Z,9.40
2019-05-13T03:24:23.103Z,9.30
2019-05-13T03:26:53.950Z,9.50
2019-05-13T03:29:23.328Z,9.40
2019-05-13T03:31:55.641Z,9.40
2019-05-13T03:35:55.042Z,9.50
2019-05-13T03:38:22.565Z,9.50
2019-05-13T03:40:52.710Z,9.50
2019-05-13T03:43:23.156Z,9.50
2019-05-13T03:46:13.228Z,9.40
2019-05-13T03:48:43.173Z,9.60
2019-05-13T03:51:13.537Z,9.40
2019-05-13T03:56:32.786Z,9.60
2019-05-13T03:59:03.042Z,9.60
2019-05-13T04:01:32.856Z,9.60
2019-05-13T04:04:03.260Z,9.70
2019-05-13T04:09:20.908Z,9.80
2019-05-13T04:11:33.559Z,9.80
2019-05-13T04:14:03.499Z,9.70
2019-05-13T04:16:34.428Z,9.80
2019-05-13T04:19:03.916Z,9.70
2019-05-13T04:21:33.954Z,9.80
2019-05-13T04:24:04.210Z,9.70
2019-05-13T04:29:03.364Z,9.50
2019-05-13T04:34:02.997Z,9.70
2019-05-13T04:36:32.698Z,9.70
2019-05-13T04:39:04.767Z,9.70
2019-05-13T04:41:34.375Z,9.70
2019-05-13T04:44:03.939Z,9.90
2019-05-13T04:46:33.591Z,9.90
2019-05-13T04:49:03.061Z,10.00
2019-05-13T04:51:33.065Z,10.00
2019-05-13T04:54:03.086Z,10.20
2019-05-13T04:59:03.148Z,10.10
2019-05-13T05:01:55.395Z,10.10
2019-05-13T05:04:35.161Z,10.00
2019-05-13T05:07:23.063Z,10.10
2019-05-13T05:10:15.919Z,10.20
2019-05-13T05:15:52.510Z,10.20
2019-05-13T05:18:32.685Z,10.30
2019-05-13T05:21:11.900Z,10.30
2019-05-13T05:24:12.940Z,10.40
2019-05-13T05:27:06.909Z,10.20
2019-05-13T05:29:57.711Z,10.20
2019-05-13T05:32:51.849Z,10.40
2019-05-13T05:35:42.737Z,10.50
2019-05-13T05:38:29.002Z,10.60
2019-05-13T05:40:58.897Z,10.70
2019-05-13T05:43:28.415Z,10.80
2019-05-13T05:45:58.022Z,10.70
2019-05-13T05:50:58.779Z,10.60
2019-05-13T05:53:28.274Z,10.80
2019-05-13T05:55:59.432Z,10.90
2019-05-13T05:58:31.558Z,10.80
2019-05-13T06:01:02.595Z,11.00
2019-05-13T06:06:02.250Z,11.00
2019-05-13T06:08:32.356Z,10.90
2019-05-13T06:11:02.295Z,10.90
2019-05-13T06:16:01.810Z,11.10
2019-05-13T06:18:32.504Z,11.20
2019-05-13T06:21:02.317Z,11.10
2019-05-13T06:23:31.819Z,11.20
2019-05-13T06:33:32.218Z,11.70
2019-05-13T06:36:01.615Z,11.90
2019-05-13T06:38:32.256Z,11.80
2019-05-13T06:41:07.915Z,12.00
2019-05-13T06:43:34.029Z,11.70
2019-05-13T06:46:03.627Z,12.00
2019-05-13T06:51:02.693Z,12.40
2019-05-13T06:53:32.381Z,12.50
2019-05-13T06:56:01.900Z,12.50
2019-05-13T06:58:32.522Z,12.80
2019-05-13T07:03:32.921Z,13.10
2019-05-13T07:06:02.526Z,13.20
2019-05-13T07:11:17.204Z,13.00
2019-05-13T07:18:32.822Z,13.40
2019-05-13T07:21:02.415Z,13.00
2019-05-13T07:23:32.084Z,13.90
2019-05-13T07:26:02.765Z,13.40
2019-05-13T07:28:32.521Z,13.60
2019-05-13T07:31:02.423Z,13.70
2019-05-13T07:33:33.131Z,13.80
2019-05-13T07:36:03.342Z,13.50
2019-05-13T07:38:33.427Z,13.40
2019-05-13T07:41:03.267Z,13.70
2019-05-13T07:43:32.687Z,13.70
2019-05-13T07:46:02.373Z,13.80
2019-05-13T07:48:33.079Z,13.80
2019-05-13T07:51:04.685Z,13.80
2019-05-13T07:53:33.710Z,14.10
2019-05-13T07:56:03.373Z,14.30
2019-05-13T08:01:04.780Z,13.80
2019-05-13T08:03:35.661Z,14.00
2019-05-13T08:06:05.170Z,14.10
2019-05-13T08:08:34.566Z,13.50
2019-05-13T08:11:04.251Z,14.00
2019-05-13T08:13:33.781Z,14.30
2019-05-13T08:16:03.381Z,14.10
2019-05-13T08:18:33.196Z,14.20
2019-05-13T08:21:02.721Z,14.00
2019-05-13T08:23:33.236Z,13.40
2019-05-13T08:26:03.245Z,13.80
2019-05-13T08:28:32.709Z,14.00
2019-05-13T08:31:56.123Z,14.40
2019-05-13T08:36:54.725Z,14.60
2019-05-13T08:39:26.944Z,14.60
2019-05-13T08:42:10.274Z,15.00
2019-05-13T08:44:26.540Z,14.60
2019-05-13T08:46:57.444Z,14.50
2019-05-13T08:49:26.847Z,14.70
2019-05-13T08:51:56.245Z,15.30
2019-05-13T08:54:26.860Z,15.70
2019-05-13T08:56:56.344Z,15.60
2019-05-13T08:59:25.890Z,15.30
2019-05-13T09:01:55.614Z,15.10
2019-05-13T09:04:25.306Z,14.90
2019-05-13T09:06:56.796Z,15.60
2019-05-13T09:09:26.357Z,16.10
2019-05-13T09:15:58.447Z,15.70
2019-05-13T09:18:27.887Z,16.60
2019-05-13T09:20:57.359Z,16.90
2019-05-13T09:23:26.857Z,16.90
2019-05-13T09:25:56.361Z,16.20
2019-05-13T09:28:25.782Z,16.20
2019-05-13T09:30:55.375Z,15.90
2019-05-13T09:33:24.842Z,15.90
2019-05-13T09:35:54.299Z,16.00
2019-05-13T09:40:53.377Z,16.10
2019-05-13T09:43:22.899Z,16.30
2019-05-13T09:45:52.656Z,16.50
2019-05-13T09:48:22.904Z,17.10
2019-05-13T09:50:53.452Z,16.40
2019-05-13T09:53:23.121Z,16.10
2019-05-13T09:58:22.617Z,16.50
2019-05-13T10:00:53.068Z,16.30
2019-05-13T10:05:54.682Z,16.90
2019-05-13T10:10:54.329Z,17.70
2019-05-13T10:13:23.806Z,16.90
2019-05-13T10:15:53.305Z,16.70
2019-05-13T10:18:22.711Z,16.80
2019-05-13T10:20:59.890Z,16.30
2019-05-13T10:23:32.494Z,16.50
2019-05-13T10:28:32.336Z,17.20
2019-05-13T10:31:01.979Z,17.40
2019-05-13T10:33:32.166Z,17.40
2019-05-13T10:36:03.863Z,17.60
2019-05-13T10:38:33.536Z,18.50
2019-05-13T10:41:03.723Z,18.20
2019-05-13T10:43:40.186Z,17.40
2019-05-13T10:48:33.962Z,18.20
2019-05-13T10:51:03.474Z,17.90
2019-05-13T10:53:32.969Z,18.30
2019-05-13T10:56:03.104Z,17.80
2019-05-13T10:58:33.307Z,18.00
2019-05-13T11:01:03.361Z,18.80
2019-05-13T11:03:33.311Z,19.00
2019-05-13T11:06:03.183Z,20.20
2019-05-13T11:08:33.405Z,20.80
2019-05-13T11:11:03.286Z,21.60
2019-05-13T11:13:50.587Z,21.70
2019-05-13T11:16:05.976Z,21.60
2019-05-13T11:20:06.914Z,21.30
2019-05-13T11:22:37.652Z,21.20
2019-05-13T11:25:07.375Z,21.30
2019-05-13T11:27:37.855Z,22.00
2019-05-13T11:30:07.998Z,21.90
2019-05-13T11:32:37.926Z,22.50
2019-05-13T11:35:07.636Z,22.60
2019-05-13T11:37:38.374Z,21.70
2019-05-13T11:40:07.876Z,21.20
2019-05-13T11:42:37.399Z,20.90
2019-05-13T11:45:08.563Z,20.20
2019-05-13T11:47:41.518Z,21.00
2019-05-13T11:50:11.629Z,21.20
2019-05-13T11:52:42.796Z,21.80
2019-05-13T11:55:13.149Z,22.20
2019-05-13T11:57:44.334Z,21.80
2019-05-13T12:00:13.940Z,21.70
2019-05-13T12:02:50.277Z,22.30
2019-05-13T12:05:14.699Z,22.10
2019-05-13T12:07:44.194Z,22.30
2019-05-13T12:10:13.698Z,22.00
2019-05-13T12:12:43.884Z,21.20
2019-05-13T12:15:27.138Z,21.20
2019-05-13T12:17:45.184Z,20.90
2019-05-13T12:20:16.791Z,20.90
2019-05-13T12:22:46.606Z,20.90
2019-05-13T12:25:16.258Z,20.60
2019-05-13T12:27:45.866Z,20.20
2019-05-13T12:30:15.339Z,20.20
2019-05-13T12:32:44.770Z,20.10
2019-05-13T12:35:14.163Z,19.20
2019-05-13T12:37:43.980Z,19.10
2019-05-13T12:40:13.479Z,19.40
2019-05-13T12:42:46.873Z,19.40
2019-05-13T12:45:14.626Z,19.00
2019-05-13T12:47:44.214Z,19.00
2019-05-13T12:50:14.007Z,19.70
2019-05-13T12:52:43.984Z,20.20
2019-05-13T12:55:14.223Z,20.30
2019-05-13T12:57:44.004Z,20.70
2019-05-13T13:00:13.512Z,20.50
2019-05-13T13:02:50.033Z,20.50
2019-05-13T13:05:20.349Z,20.40
2019-05-13T13:08:12.180Z,20.60
2019-05-13T13:10:17.260Z,19.80
2019-05-13T13:12:46.762Z,19.20
2019-05-13T13:15:35.934Z,18.80
2019-05-13T13:17:53.609Z,18.50
2019-05-13T13:20:24.304Z,18.70
2019-05-13T13:22:52.100Z,18.60
2019-05-13T13:25:23.774Z,18.60
2019-05-13T13:28:10.522Z,18.70
2019-05-13T13:30:24.553Z,18.60
2019-05-13T13:32:58.253Z,18.00
2019-05-13T13:35:27.659Z,17.90
2019-05-13T13:37:58.290Z,18.50
2019-05-13T13:40:29.754Z,18.30
2019-05-13T13:42:58.808Z,18.30
2019-05-13T13:45:28.542Z,18.80
2019-05-13T13:48:03.552Z,18.40
2019-05-13T13:50:33.287Z,18.50
2019-05-13T13:53:00.282Z,17.90
2019-05-13T13:55:32.145Z,17.80
2019-05-13T13:58:02.308Z,18.10
2019-05-13T14:00:40.638Z,17.90
2019-05-13T14:03:06.507Z,17.80
2019-05-13T14:05:36.258Z,18.60
2019-05-13T14:08:05.963Z,18.50
2019-05-13T14:10:35.566Z,18.70
2019-05-13T14:13:05.064Z,18.40
2019-05-13T14:15:34.580Z,18.40
2019-05-13T14:18:04.259Z,17.90
2019-05-13T14:20:33.788Z,18.20
2019-05-13T14:23:03.390Z,18.10
2019-05-13T14:25:33.008Z,17.50
2019-05-13T14:28:02.614Z,17.30
2019-05-13T14:30:32.518Z,17.40
2019-05-13T14:33:02.381Z,17.40
2019-05-13T14:35:32.036Z,17.50
2019-05-13T14:38:02.476Z,17.50
2019-05-13T14:40:32.327Z,17.50
2019-05-13T14:43:03.652Z,17.80
2019-05-13T14:45:33.227Z,18.20
2019-05-13T14:48:02.730Z,18.40
2019-05-13T14:50:32.234Z,18.20
